sensor_id;sensor_type;location;lat;lon;timestamp;pressure;altitude;pressure_sealevel;temperature
68127;BMP180;54931;52.098;21.006;2023-07-31T00:00:44;99639.40;;;17.20
68127;BMP180;54931;52.098;21.006;2023-07-31T00:03:26;99641.00;;;17.12
68127;BMP180;54931;52.098;21.006;2023-07-31T00:05:53;99642.00;;;17.10
68127;BMP180;54931;52.098;21.006;2023-07-31T00:08:20;99638.60;;;17.10
68127;BMP180;54931;52.098;21.006;2023-07-31T00:10:52;99638.80;;;17.00
68127;BMP180;54931;52.098;21.006;2023-07-31T00:13:19;99642.20;;;17.00
68127;BMP180;54931;52.098;21.006;2023-07-31T00:15:47;99649.00;;;16.90
68127;BMP180;54931;52.098;21.006;2023-07-31T00:18:15;99654.00;;;16.90
68127;BMP180;54931;52.098;21.006;2023-07-31T00:20:42;99650.40;;;16.90
68127;BMP180;54931;52.098;21.006;2023-07-31T00:23:10;99648.40;;;16.80
68127;BMP180;54931;52.098;21.006;2023-07-31T00:25:37;99645.60;;;16.80
68127;BMP180;54931;52.098;21.006;2023-07-31T00:28:05;99647.40;;;16.80
68127;BMP180;54931;52.098;21.006;2023-07-31T00:30:32;99644.60;;;16.70
68127;BMP180;54931;52.098;21.006;2023-07-31T00:32:59;99643.80;;;16.70
68127;BMP180;54931;52.098;21.006;2023-07-31T00:35:26;99634.40;;;16.64
68127;BMP180;54931;52.098;21.006;2023-07-31T00:37:53;99636.60;;;16.60
68127;BMP180;54931;52.098;21.006;2023-07-31T00:40:21;99637.80;;;16.60
68127;BMP180;54931;52.098;21.006;2023-07-31T00:42:49;99639.60;;;16.60
68127;BMP180;54931;52.098;21.006;2023-07-31T00:45:16;99629.80;;;16.50
68127;BMP180;54931;52.098;21.006;2023-07-31T00:47:43;99634.60;;;16.50
68127;BMP180;54931;52.098;21.006;2023-07-31T00:50:11;99639.00;;;16.50
68127;BMP180;54931;52.098;21.006;2023-07-31T00:52:40;99633.20;;;16.50
68127;BMP180;54931;52.098;21.006;2023-07-31T00:55:08;99637.60;;;16.40
68127;BMP180;54931;52.098;21.006;2023-07-31T00:57:36;99637.00;;;16.40
68127;BMP180;54931;52.098;21.006;2023-07-31T01:00:07;99636.60;;;16.40
68127;BMP180;54931;52.098;21.006;2023-07-31T01:02:38;99636.40;;;16.40
68127;BMP180;54931;52.098;21.006;2023-07-31T01:05:05;99632.60;;;16.34
68127;BMP180;54931;52.098;21.006;2023-07-31T01:08:12;99631.60;;;16.34
68127;BMP180;54931;52.098;21.006;2023-07-31T01:10:54;99638.00;;;16.30
68127;BMP180;54931;52.098;21.006;2023-07-31T01:13:23;99641.20;;;16.30
68127;BMP180;54931;52.098;21.006;2023-07-31T01:15:51;99641.20;;;16.30
68127;BMP180;54931;52.098;21.006;2023-07-31T01:18:18;99641.60;;;16.30
68127;BMP180;54931;52.098;21.006;2023-07-31T01:20:57;99636.20;;;16.26
68127;BMP180;54931;52.098;21.006;2023-07-31T01:26:34;99637.40;;;16.22
68127;BMP180;54931;52.098;21.006;2023-07-31T01:29:11;99642.80;;;16.20
68127;BMP180;54931;52.098;21.006;2023-07-31T01:31:43;99640.40;;;16.20
68127;BMP180;54931;52.098;21.006;2023-07-31T01:34:12;99641.60;;;16.20
68127;BMP180;54931;52.098;21.006;2023-07-31T01:36:40;99644.20;;;16.20
68127;BMP180;54931;52.098;21.006;2023-07-31T01:39:08;99648.40;;;16.10
68127;BMP180;54931;52.098;21.006;2023-07-31T01:41:35;99649.60;;;16.08
68127;BMP180;54931;52.098;21.006;2023-07-31T01:44:02;99647.80;;;16.00
68127;BMP180;54931;52.098;21.006;2023-07-31T01:46:30;99651.60;;;15.90
68127;BMP180;54931;52.098;21.006;2023-07-31T01:48:57;99651.80;;;15.90
68127;BMP180;54931;52.098;21.006;2023-07-31T01:51:25;99651.00;;;15.80
68127;BMP180;54931;52.098;21.006;2023-07-31T01:53:52;99654.20;;;15.80
68127;BMP180;54931;52.098;21.006;2023-07-31T01:56:19;99660.40;;;15.70
68127;BMP180;54931;52.098;21.006;2023-07-31T01:58:47;99654.20;;;15.70
68127;BMP180;54931;52.098;21.006;2023-07-31T02:01:14;99658.00;;;15.60
68127;BMP180;54931;52.098;21.006;2023-07-31T02:03:42;99659.80;;;15.60
68127;BMP180;54931;52.098;21.006;2023-07-31T02:06:09;99663.60;;;15.60
68127;BMP180;54931;52.098;21.006;2023-07-31T02:08:37;99660.40;;;15.50
68127;BMP180;54931;52.098;21.006;2023-07-31T02:11:05;99653.40;;;15.50
68127;BMP180;54931;52.098;21.006;2023-07-31T02:13:33;99655.40;;;15.50
68127;BMP180;54931;52.098;21.006;2023-07-31T02:16:00;99654.80;;;15.50
68127;BMP180;54931;52.098;21.006;2023-07-31T02:18:28;99660.40;;;15.40
68127;BMP180;54931;52.098;21.006;2023-07-31T02:20:55;99661.80;;;15.40
68127;BMP180;54931;52.098;21.006;2023-07-31T02:23:23;99664.40;;;15.40
68127;BMP180;54931;52.098;21.006;2023-07-31T02:25:50;99674.20;;;15.40
68127;BMP180;54931;52.098;21.006;2023-07-31T02:28:17;99674.40;;;15.40
68127;BMP180;54931;52.098;21.006;2023-07-31T02:30:45;99675.80;;;15.32
68127;BMP180;54931;52.098;21.006;2023-07-31T02:33:15;99675.80;;;15.30
68127;BMP180;54931;52.098;21.006;2023-07-31T02:35:43;99677.20;;;15.30
68127;BMP180;54931;52.098;21.006;2023-07-31T02:38:10;99677.00;;;15.30
68127;BMP180;54931;52.098;21.006;2023-07-31T02:40:39;99680.80;;;15.30
68127;BMP180;54931;52.098;21.006;2023-07-31T02:43:08;99678.20;;;15.30
68127;BMP180;54931;52.098;21.006;2023-07-31T02:45:36;99685.20;;;15.40
68127;BMP180;54931;52.098;21.006;2023-07-31T02:48:03;99687.20;;;15.42
68127;BMP180;54931;52.098;21.006;2023-07-31T02:50:30;99689.80;;;15.50
68127;BMP180;54931;52.098;21.006;2023-07-31T02:52:59;99684.80;;;15.60
68127;BMP180;54931;52.098;21.006;2023-07-31T02:55:26;99675.40;;;15.70
68127;BMP180;54931;52.098;21.006;2023-07-31T02:57:53;99669.60;;;15.80
68127;BMP180;54931;52.098;21.006;2023-07-31T03:00:20;99670.00;;;15.90
68127;BMP180;54931;52.098;21.006;2023-07-31T03:02:48;99675.00;;;16.00
68127;BMP180;54931;52.098;21.006;2023-07-31T03:05:15;99678.00;;;16.10
68127;BMP180;54931;52.098;21.006;2023-07-31T03:07:42;99680.80;;;16.20
68127;BMP180;54931;52.098;21.006;2023-07-31T03:10:10;99676.60;;;16.30
68127;BMP180;54931;52.098;21.006;2023-07-31T03:12:37;99673.00;;;16.38
68127;BMP180;54931;52.098;21.006;2023-07-31T03:15:05;99676.00;;;16.40
68127;BMP180;54931;52.098;21.006;2023-07-31T03:17:33;99676.00;;;16.50
68127;BMP180;54931;52.098;21.006;2023-07-31T03:20:00;99672.60;;;16.50
68127;BMP180;54931;52.098;21.006;2023-07-31T03:22:27;99675.40;;;16.56
68127;BMP180;54931;52.098;21.006;2023-07-31T03:24:55;99678.40;;;16.60
68127;BMP180;54931;52.098;21.006;2023-07-31T03:27:22;99683.20;;;16.60
68127;BMP180;54931;52.098;21.006;2023-07-31T03:29:49;99684.20;;;16.64
68127;BMP180;54931;52.098;21.006;2023-07-31T03:32:18;99692.20;;;16.70
68127;BMP180;54931;52.098;21.006;2023-07-31T03:34:47;99695.60;;;16.70
68127;BMP180;54931;52.098;21.006;2023-07-31T03:37:14;99697.20;;;16.72
68127;BMP180;54931;52.098;21.006;2023-07-31T03:39:41;99699.00;;;16.80
68127;BMP180;54931;52.098;21.006;2023-07-31T03:42:08;99698.60;;;16.80
68127;BMP180;54931;52.098;21.006;2023-07-31T03:44:36;99698.80;;;16.80
68127;BMP180;54931;52.098;21.006;2023-07-31T03:47:05;99697.00;;;16.90
68127;BMP180;54931;52.098;21.006;2023-07-31T03:49:32;99696.20;;;16.90
68127;BMP180;54931;52.098;21.006;2023-07-31T03:51:59;99694.20;;;16.90
68127;BMP180;54931;52.098;21.006;2023-07-31T03:54:27;99698.80;;;17.00
68127;BMP180;54931;52.098;21.006;2023-07-31T03:56:54;99707.20;;;17.00
68127;BMP180;54931;52.098;21.006;2023-07-31T03:59:22;99708.20;;;17.00
68127;BMP180;54931;52.098;21.006;2023-07-31T04:01:49;99704.80;;;17.08
68127;BMP180;54931;52.098;21.006;2023-07-31T04:04:16;99712.80;;;17.10
68127;BMP180;54931;52.098;21.006;2023-07-31T04:06:44;99713.40;;;17.10
68127;BMP180;54931;52.098;21.006;2023-07-31T04:09:11;99715.60;;;17.10
68127;BMP180;54931;52.098;21.006;2023-07-31T04:11:38;99718.60;;;17.20
68127;BMP180;54931;52.098;21.006;2023-07-31T04:14:06;99720.60;;;17.20
68127;BMP180;54931;52.098;21.006;2023-07-31T04:16:34;99724.40;;;17.20
68127;BMP180;54931;52.098;21.006;2023-07-31T04:19:03;99724.80;;;17.20
68127;BMP180;54931;52.098;21.006;2023-07-31T04:21:31;99728.40;;;17.20
68127;BMP180;54931;52.098;21.006;2023-07-31T04:23:58;99731.00;;;17.20
68127;BMP180;54931;52.098;21.006;2023-07-31T04:26:25;99726.20;;;17.26
68127;BMP180;54931;52.098;21.006;2023-07-31T04:28:54;99728.40;;;17.30
68127;BMP180;54931;52.098;21.006;2023-07-31T04:31:22;99737.00;;;17.30
68127;BMP180;54931;52.098;21.006;2023-07-31T04:33:49;99737.40;;;17.30
68127;BMP180;54931;52.098;21.006;2023-07-31T04:36:16;99739.00;;;17.30
68127;BMP180;54931;52.098;21.006;2023-07-31T04:38:44;99738.80;;;17.30
68127;BMP180;54931;52.098;21.006;2023-07-31T04:41:11;99744.40;;;17.30
68127;BMP180;54931;52.098;21.006;2023-07-31T04:43:38;99740.00;;;17.30
68127;BMP180;54931;52.098;21.006;2023-07-31T04:46:06;99742.00;;;17.30
68127;BMP180;54931;52.098;21.006;2023-07-31T04:48:35;99744.60;;;17.30
68127;BMP180;54931;52.098;21.006;2023-07-31T04:51:02;99741.00;;;17.30
68127;BMP180;54931;52.098;21.006;2023-07-31T04:53:30;99742.80;;;17.30
68127;BMP180;54931;52.098;21.006;2023-07-31T04:55:57;99740.20;;;17.30
68127;BMP180;54931;52.098;21.006;2023-07-31T04:58:24;99738.60;;;17.30
68127;BMP180;54931;52.098;21.006;2023-07-31T05:00:52;99742.60;;;17.30
68127;BMP180;54931;52.098;21.006;2023-07-31T05:03:19;99742.80;;;17.30
68127;BMP180;54931;52.098;21.006;2023-07-31T05:05:47;99745.00;;;17.32
68127;BMP180;54931;52.098;21.006;2023-07-31T05:08:14;99741.00;;;17.40
68127;BMP180;54931;52.098;21.006;2023-07-31T05:10:45;99742.40;;;17.40
68127;BMP180;54931;52.098;21.006;2023-07-31T05:13:15;99743.80;;;17.40
68127;BMP180;54931;52.098;21.006;2023-07-31T05:15:42;99743.80;;;17.40
68127;BMP180;54931;52.098;21.006;2023-07-31T05:18:09;99742.20;;;17.50
68127;BMP180;54931;52.098;21.006;2023-07-31T05:20:37;99742.80;;;17.52
68127;BMP180;54931;52.098;21.006;2023-07-31T05:23:04;99745.80;;;17.60
68127;BMP180;54931;52.098;21.006;2023-07-31T05:25:31;99746.80;;;17.70
68127;BMP180;54931;52.098;21.006;2023-07-31T05:27:59;99743.40;;;17.80
68127;BMP180;54931;52.098;21.006;2023-07-31T05:30:26;99745.00;;;17.80
68127;BMP180;54931;52.098;21.006;2023-07-31T05:32:53;99748.20;;;17.90
68127;BMP180;54931;52.098;21.006;2023-07-31T05:35:21;99750.60;;;17.96
68127;BMP180;54931;52.098;21.006;2023-07-31T05:37:48;99755.20;;;18.00
68127;BMP180;54931;52.098;21.006;2023-07-31T05:40:15;99761.60;;;18.10
68127;BMP180;54931;52.098;21.006;2023-07-31T05:42:42;99761.80;;;18.10
68127;BMP180;54931;52.098;21.006;2023-07-31T05:45:10;99765.40;;;18.10
68127;BMP180;54931;52.098;21.006;2023-07-31T05:47:38;99769.80;;;18.04
68127;BMP180;54931;52.098;21.006;2023-07-31T05:50:05;99771.80;;;18.04
68127;BMP180;54931;52.098;21.006;2023-07-31T05:52:33;99774.20;;;18.08
68127;BMP180;54931;52.098;21.006;2023-07-31T05:55:00;99781.20;;;18.10
68127;BMP180;54931;52.098;21.006;2023-07-31T05:57:28;99783.80;;;18.10
68127;BMP180;54931;52.098;21.006;2023-07-31T05:59:55;99780.40;;;18.20
68127;BMP180;54931;52.098;21.006;2023-07-31T06:02:23;99779.80;;;18.20
68127;BMP180;54931;52.098;21.006;2023-07-31T06:04:51;99781.80;;;18.20
68127;BMP180;54931;52.098;21.006;2023-07-31T06:07:18;99787.20;;;18.20
68127;BMP180;54931;52.098;21.006;2023-07-31T06:09:46;99787.80;;;18.20
68127;BMP180;54931;52.098;21.006;2023-07-31T06:12:13;99792.80;;;18.20
68127;BMP180;54931;52.098;21.006;2023-07-31T06:14:41;99796.80;;;18.20
68127;BMP180;54931;52.098;21.006;2023-07-31T06:17:08;99796.20;;;18.20
68127;BMP180;54931;52.098;21.006;2023-07-31T06:19:36;99797.40;;;18.20
68127;BMP180;54931;52.098;21.006;2023-07-31T06:22:04;99797.40;;;18.20
68127;BMP180;54931;52.098;21.006;2023-07-31T06:24:32;99796.80;;;18.04
68127;BMP180;54931;52.098;21.006;2023-07-31T06:27:00;99797.40;;;18.00
68127;BMP180;54931;52.098;21.006;2023-07-31T06:29:30;99798.00;;;17.96
68127;BMP180;54931;52.098;21.006;2023-07-31T06:31:58;99795.20;;;17.90
68127;BMP180;54931;52.098;21.006;2023-07-31T06:34:25;99794.20;;;17.90
68127;BMP180;54931;52.098;21.006;2023-07-31T06:36:52;99802.00;;;17.88
68127;BMP180;54931;52.098;21.006;2023-07-31T06:39:20;99802.80;;;17.90
68127;BMP180;54931;52.098;21.006;2023-07-31T06:41:47;99806.20;;;17.84
68127;BMP180;54931;52.098;21.006;2023-07-31T06:44:14;99808.20;;;17.88
68127;BMP180;54931;52.098;21.006;2023-07-31T06:46:42;99809.00;;;17.90
68127;BMP180;54931;52.098;21.006;2023-07-31T06:49:10;99806.80;;;17.90
68127;BMP180;54931;52.098;21.006;2023-07-31T06:51:37;99805.20;;;18.00
68127;BMP180;54931;52.098;21.006;2023-07-31T06:54:07;99803.20;;;18.00
68127;BMP180;54931;52.098;21.006;2023-07-31T06:56:35;99806.60;;;18.00
68127;BMP180;54931;52.098;21.006;2023-07-31T06:59:03;99816.40;;;18.00
68127;BMP180;54931;52.098;21.006;2023-07-31T07:01:30;99819.40;;;18.10
68127;BMP180;54931;52.098;21.006;2023-07-31T07:03:58;99816.60;;;18.10
68127;BMP180;54931;52.098;21.006;2023-07-31T07:06:25;99808.20;;;18.20
68127;BMP180;54931;52.098;21.006;2023-07-31T07:08:52;99805.80;;;18.30
68127;BMP180;54931;52.098;21.006;2023-07-31T07:11:20;99806.20;;;18.40
68127;BMP180;54931;52.098;21.006;2023-07-31T07:13:47;99810.60;;;18.60
68127;BMP180;54931;52.098;21.006;2023-07-31T07:16:15;99808.00;;;18.80
68127;BMP180;54931;52.098;21.006;2023-07-31T07:18:42;99801.40;;;18.98
68127;BMP180;54931;52.098;21.006;2023-07-31T07:21:10;99803.80;;;19.22
68127;BMP180;54931;52.098;21.006;2023-07-31T07:23:42;99807.00;;;19.48
68127;BMP180;54931;52.098;21.006;2023-07-31T07:26:09;99812.60;;;19.70
68127;BMP180;54931;52.098;21.006;2023-07-31T07:28:37;99817.80;;;19.90
68127;BMP180;54931;52.098;21.006;2023-07-31T07:31:05;99816.00;;;20.02
68127;BMP180;54931;52.098;21.006;2023-07-31T07:33:32;99814.60;;;20.20
68127;BMP180;54931;52.098;21.006;2023-07-31T07:36:01;99817.80;;;20.50
68127;BMP180;54931;52.098;21.006;2023-07-31T07:38:29;99806.60;;;20.74
68127;BMP180;54931;52.098;21.006;2023-07-31T07:40:57;99810.20;;;21.22
68127;BMP180;54931;52.098;21.006;2023-07-31T07:43:24;99811.60;;;21.74
68127;BMP180;54931;52.098;21.006;2023-07-31T07:45:51;99811.00;;;22.00
68127;BMP180;54931;52.098;21.006;2023-07-31T07:48:21;99808.60;;;22.00
68127;BMP180;54931;52.098;21.006;2023-07-31T07:50:49;99814.60;;;22.00
68127;BMP180;54931;52.098;21.006;2023-07-31T07:53:16;99815.80;;;21.90
68127;BMP180;54931;52.098;21.006;2023-07-31T07:55:43;99814.80;;;21.90
68127;BMP180;54931;52.098;21.006;2023-07-31T07:58:11;99817.40;;;21.80
68127;BMP180;54931;52.098;21.006;2023-07-31T08:00:39;99822.60;;;21.86
68127;BMP180;54931;52.098;21.006;2023-07-31T08:03:06;99809.40;;;22.12
68127;BMP180;54931;52.098;21.006;2023-07-31T08:05:34;99816.40;;;22.30
68127;BMP180;54931;52.098;21.006;2023-07-31T08:08:02;99815.40;;;22.40
68127;BMP180;54931;52.098;21.006;2023-07-31T08:10:30;99814.20;;;22.40
68127;BMP180;54931;52.098;21.006;2023-07-31T08:12:57;99815.40;;;22.34
68127;BMP180;54931;52.098;21.006;2023-07-31T08:15:25;99814.00;;;22.40
68127;BMP180;54931;52.098;21.006;2023-07-31T08:17:52;99810.00;;;22.48
68127;BMP180;54931;52.098;21.006;2023-07-31T08:20:20;99815.40;;;22.60
68127;BMP180;54931;52.098;21.006;2023-07-31T08:22:49;99811.40;;;22.76
68127;BMP180;54931;52.098;21.006;2023-07-31T08:25:16;99809.00;;;22.90
68127;BMP180;54931;52.098;21.006;2023-07-31T08:27:44;99804.00;;;23.24
68127;BMP180;54931;52.098;21.006;2023-07-31T08:30:12;99806.80;;;23.50
68127;BMP180;54931;52.098;21.006;2023-07-31T08:32:39;99808.00;;;23.62
68127;BMP180;54931;52.098;21.006;2023-07-31T08:35:07;99805.20;;;24.02
68127;BMP180;54931;52.098;21.006;2023-07-31T08:37:35;99810.20;;;24.40
68127;BMP180;54931;52.098;21.006;2023-07-31T08:40:04;99806.20;;;24.80
68127;BMP180;54931;52.098;21.006;2023-07-31T08:42:32;99809.40;;;25.16
68127;BMP180;54931;52.098;21.006;2023-07-31T08:45:01;99804.80;;;25.40
68127;BMP180;54931;52.098;21.006;2023-07-31T08:47:32;99803.20;;;25.40
68127;BMP180;54931;52.098;21.006;2023-07-31T08:50:00;99803.60;;;25.30
68127;BMP180;54931;52.098;21.006;2023-07-31T08:52:29;99806.40;;;25.26
68127;BMP180;54931;52.098;21.006;2023-07-31T08:54:57;99813.00;;;25.40
68127;BMP180;54931;52.098;21.006;2023-07-31T08:57:25;99807.00;;;25.70
68127;BMP180;54931;52.098;21.006;2023-07-31T08:59:53;99803.00;;;25.90
68127;BMP180;54931;52.098;21.006;2023-07-31T09:02:21;99799.40;;;26.00
68127;BMP180;54931;52.098;21.006;2023-07-31T09:04:51;99803.20;;;26.12
68127;BMP180;54931;52.098;21.006;2023-07-31T09:07:18;99802.20;;;26.20
68127;BMP180;54931;52.098;21.006;2023-07-31T09:09:46;99806.60;;;26.30
68127;BMP180;54931;52.098;21.006;2023-07-31T09:12:14;99807.20;;;26.40
68127;BMP180;54931;52.098;21.006;2023-07-31T09:14:43;99812.60;;;26.66
68127;BMP180;54931;52.098;21.006;2023-07-31T09:17:12;99810.40;;;26.80
68127;BMP180;54931;52.098;21.006;2023-07-31T09:19:46;99815.60;;;26.80
68127;BMP180;54931;52.098;21.006;2023-07-31T09:22:13;99814.40;;;26.70
68127;BMP180;54931;52.098;21.006;2023-07-31T09:24:42;99812.00;;;26.60
68127;BMP180;54931;52.098;21.006;2023-07-31T09:27:10;99815.20;;;26.70
68127;BMP180;54931;52.098;21.006;2023-07-31T09:29:37;99817.00;;;26.76
68127;BMP180;54931;52.098;21.006;2023-07-31T09:32:16;99811.00;;;26.88
68127;BMP180;54931;52.098;21.006;2023-07-31T09:34:44;99811.80;;;26.80
68127;BMP180;54931;52.098;21.006;2023-07-31T09:37:12;99803.60;;;26.90
68127;BMP180;54931;52.098;21.006;2023-07-31T09:39:47;99803.60;;;27.20
68127;BMP180;54931;52.098;21.006;2023-07-31T09:42:25;99810.20;;;27.10
68127;BMP180;54931;52.098;21.006;2023-07-31T09:45:01;99807.40;;;27.20
68127;BMP180;54931;52.098;21.006;2023-07-31T09:47:38;99805.40;;;27.06
68127;BMP180;54931;52.098;21.006;2023-07-31T09:50:08;99809.00;;;26.70
68127;BMP180;54931;52.098;21.006;2023-07-31T09:52:39;99802.20;;;26.46
68127;BMP180;54931;52.098;21.006;2023-07-31T09:55:10;99806.40;;;26.26
68127;BMP180;54931;52.098;21.006;2023-07-31T09:57:41;99811.40;;;26.38
68127;BMP180;54931;52.098;21.006;2023-07-31T10:00:18;99812.60;;;26.18
68127;BMP180;54931;52.098;21.006;2023-07-31T10:02:48;99808.20;;;25.70
68127;BMP180;54931;52.098;21.006;2023-07-31T10:05:17;99806.40;;;25.30
68127;BMP180;54931;52.098;21.006;2023-07-31T10:07:57;99806.40;;;25.40
68127;BMP180;54931;52.098;21.006;2023-07-31T10:10:26;99805.80;;;25.66
68127;BMP180;54931;52.098;21.006;2023-07-31T10:12:57;99795.00;;;25.94
68127;BMP180;54931;52.098;21.006;2023-07-31T10:15:26;99807.40;;;26.10
68127;BMP180;54931;52.098;21.006;2023-07-31T10:17:54;99801.60;;;25.84
68127;BMP180;54931;52.098;21.006;2023-07-31T10:20:23;99800.80;;;25.70
68127;BMP180;54931;52.098;21.006;2023-07-31T10:22:54;99802.40;;;25.70
68127;BMP180;54931;52.098;21.006;2023-07-31T10:25:26;99798.80;;;25.76
68127;BMP180;54931;52.098;21.006;2023-07-31T10:27:57;99796.60;;;26.24
68127;BMP180;54931;52.098;21.006;2023-07-31T10:30:30;99795.40;;;26.56
68127;BMP180;54931;52.098;21.006;2023-07-31T10:33:00;99795.20;;;26.86
68127;BMP180;54931;52.098;21.006;2023-07-31T10:35:28;99792.40;;;27.20
68127;BMP180;54931;52.098;21.006;2023-07-31T10:38:10;99798.40;;;27.46
68127;BMP180;54931;52.098;21.006;2023-07-31T10:40:39;99795.60;;;27.60
68127;BMP180;54931;52.098;21.006;2023-07-31T10:43:07;99795.20;;;27.80
68127;BMP180;54931;52.098;21.006;2023-07-31T10:45:42;99792.80;;;27.66
68127;BMP180;54931;52.098;21.006;2023-07-31T10:48:16;99796.20;;;27.24
68127;BMP180;54931;52.098;21.006;2023-07-31T10:50:56;99793.60;;;26.80
68127;BMP180;54931;52.098;21.006;2023-07-31T10:53:32;99795.20;;;26.70
68127;BMP180;54931;52.098;21.006;2023-07-31T10:56:09;99791.40;;;26.60
68127;BMP180;54931;52.098;21.006;2023-07-31T10:58:38;99791.00;;;26.40
68127;BMP180;54931;52.098;21.006;2023-07-31T11:01:06;99789.00;;;26.50
68127;BMP180;54931;52.098;21.006;2023-07-31T11:03:49;99792.00;;;26.70
68127;BMP180;54931;52.098;21.006;2023-07-31T11:06:19;99787.60;;;26.60
68127;BMP180;54931;52.098;21.006;2023-07-31T11:08:50;99787.40;;;26.70
68127;BMP180;54931;52.098;21.006;2023-07-31T11:11:20;99787.20;;;26.80
68127;BMP180;54931;52.098;21.006;2023-07-31T11:13:51;99785.80;;;26.70
68127;BMP180;54931;52.098;21.006;2023-07-31T11:16:25;99786.60;;;26.96
68127;BMP180;54931;52.098;21.006;2023-07-31T11:18:53;99788.60;;;26.90
68127;BMP180;54931;52.098;21.006;2023-07-31T11:21:24;99788.80;;;26.94
68127;BMP180;54931;52.098;21.006;2023-07-31T11:23:57;99788.60;;;27.10
68127;BMP180;54931;52.098;21.006;2023-07-31T11:26:25;99781.60;;;26.98
68127;BMP180;54931;52.098;21.006;2023-07-31T11:28:54;99785.20;;;26.80
68127;BMP180;54931;52.098;21.006;2023-07-31T11:31:22;99784.20;;;26.50
68127;BMP180;54931;52.098;21.006;2023-07-31T11:33:50;99787.40;;;26.10
68127;BMP180;54931;52.098;21.006;2023-07-31T11:36:20;99783.20;;;25.80
68127;BMP180;54931;52.098;21.006;2023-07-31T11:38:48;99785.80;;;25.68
68127;BMP180;54931;52.098;21.006;2023-07-31T11:41:17;99787.80;;;25.60
68127;BMP180;54931;52.098;21.006;2023-07-31T11:43:46;99786.60;;;25.50
68127;BMP180;54931;52.098;21.006;2023-07-31T11:46:15;99781.20;;;25.40
68127;BMP180;54931;52.098;21.006;2023-07-31T11:48:43;99783.40;;;25.36
68127;BMP180;54931;52.098;21.006;2023-07-31T11:51:14;99777.00;;;25.30
68127;BMP180;54931;52.098;21.006;2023-07-31T11:54:02;99777.80;;;25.20
68127;BMP180;54931;52.098;21.006;2023-07-31T11:56:30;99779.80;;;25.10
68127;BMP180;54931;52.098;21.006;2023-07-31T11:59:00;99774.80;;;25.00
68127;BMP180;54931;52.098;21.006;2023-07-31T12:01:32;99771.20;;;24.90
68127;BMP180;54931;52.098;21.006;2023-07-31T12:04:01;99775.40;;;24.80
68127;BMP180;54931;52.098;21.006;2023-07-31T12:06:37;99779.80;;;24.80
68127;BMP180;54931;52.098;21.006;2023-07-31T12:09:05;99776.20;;;24.80
68127;BMP180;54931;52.098;21.006;2023-07-31T12:11:46;99780.00;;;24.80
68127;BMP180;54931;52.098;21.006;2023-07-31T12:14:26;99776.00;;;24.82
68127;BMP180;54931;52.098;21.006;2023-07-31T12:17:03;99773.00;;;24.90
68127;BMP180;54931;52.098;21.006;2023-07-31T12:19:32;99776.60;;;25.00
68127;BMP180;54931;52.098;21.006;2023-07-31T12:22:00;99774.00;;;25.06
68127;BMP180;54931;52.098;21.006;2023-07-31T12:24:28;99773.40;;;25.00
68127;BMP180;54931;52.098;21.006;2023-07-31T12:26:56;99770.00;;;25.00
68127;BMP180;54931;52.098;21.006;2023-07-31T12:29:34;99771.60;;;25.00
68127;BMP180;54931;52.098;21.006;2023-07-31T12:32:03;99767.40;;;25.00
68127;BMP180;54931;52.098;21.006;2023-07-31T12:34:42;99765.20;;;25.10
68127;BMP180;54931;52.098;21.006;2023-07-31T12:37:09;99767.60;;;25.08
68127;BMP180;54931;52.098;21.006;2023-07-31T12:39:37;99758.40;;;25.00
68127;BMP180;54931;52.098;21.006;2023-07-31T12:42:05;99754.80;;;24.90
68127;BMP180;54931;52.098;21.006;2023-07-31T12:44:33;99747.60;;;24.86
68127;BMP180;54931;52.098;21.006;2023-07-31T12:47:01;99747.80;;;24.90
68127;BMP180;54931;52.098;21.006;2023-07-31T12:49:28;99746.00;;;25.00
68127;BMP180;54931;52.098;21.006;2023-07-31T12:51:56;99741.40;;;25.00
68127;BMP180;54931;52.098;21.006;2023-07-31T12:54:23;99743.20;;;25.00
68127;BMP180;54931;52.098;21.006;2023-07-31T12:56:51;99744.00;;;25.10
68127;BMP180;54931;52.098;21.006;2023-07-31T12:59:19;99740.00;;;25.20
68127;BMP180;54931;52.098;21.006;2023-07-31T13:01:46;99736.40;;;25.30
68127;BMP180;54931;52.098;21.006;2023-07-31T13:04:14;99730.60;;;25.30
68127;BMP180;54931;52.098;21.006;2023-07-31T13:06:42;99730.00;;;25.30
68127;BMP180;54931;52.098;21.006;2023-07-31T13:09:09;99730.20;;;25.20
68127;BMP180;54931;52.098;21.006;2023-07-31T13:11:38;99728.80;;;25.20
68127;BMP180;54931;52.098;21.006;2023-07-31T13:14:05;99726.20;;;25.16
68127;BMP180;54931;52.098;21.006;2023-07-31T13:16:33;99725.80;;;25.20
68127;BMP180;54931;52.098;21.006;2023-07-31T13:19:01;99716.20;;;25.20
68127;BMP180;54931;52.098;21.006;2023-07-31T13:21:28;99713.80;;;25.10
68127;BMP180;54931;52.098;21.006;2023-07-31T13:23:56;99709.60;;;25.10
68127;BMP180;54931;52.098;21.006;2023-07-31T13:26:25;99709.80;;;25.20
68127;BMP180;54931;52.098;21.006;2023-07-31T13:28:53;99704.00;;;25.50
68127;BMP180;54931;52.098;21.006;2023-07-31T13:31:20;99703.20;;;25.88
68127;BMP180;54931;52.098;21.006;2023-07-31T13:33:48;99705.40;;;26.10
68127;BMP180;54931;52.098;21.006;2023-07-31T13:36:16;99696.80;;;26.34
68127;BMP180;54931;52.098;21.006;2023-07-31T13:38:43;99701.40;;;26.50
68127;BMP180;54931;52.098;21.006;2023-07-31T13:41:11;99700.60;;;26.50
68127;BMP180;54931;52.098;21.006;2023-07-31T13:43:38;99699.20;;;26.56
68127;BMP180;54931;52.098;21.006;2023-07-31T13:46:07;99696.80;;;26.90
68127;BMP180;54931;52.098;21.006;2023-07-31T13:48:35;99697.60;;;27.00
68127;BMP180;54931;52.098;21.006;2023-07-31T13:51:03;99695.00;;;26.90
68127;BMP180;54931;52.098;21.006;2023-07-31T13:53:31;99691.40;;;26.70
68127;BMP180;54931;52.098;21.006;2023-07-31T13:56:00;99692.40;;;26.60
68127;BMP180;54931;52.098;21.006;2023-07-31T13:58:28;99687.00;;;26.30
68127;BMP180;54931;52.098;21.006;2023-07-31T14:00:56;99690.60;;;25.92
68127;BMP180;54931;52.098;21.006;2023-07-31T14:03:24;99685.60;;;25.60
68127;BMP180;54931;52.098;21.006;2023-07-31T14:05:52;99685.20;;;25.28
68127;BMP180;54931;52.098;21.006;2023-07-31T14:08:23;99685.00;;;25.00